Portada
METAR-TAF:

METAR-TAF

Aeroports :

Aeroport de Badajoz

Badajoz, Espanya

latitud: 38-53N, longitud: 006-49W, altitud: 185 m

Observació

L'informe es va fer fa 6 hores i 56 minuts, a les 19:00 UTC
Vent 6 kt del Nord
Temperatura 36°C
Humitat 21%
Pressió 1009 hPa
Visibilitat 10 km o més
sense núvols per sota de 1500 mi sense presència de cumulonimbus.

METAR: LEBZ 141900Z 35006KT CAVOK 36/10 Q1009

Hora: 03:56 (01:56 UTC)

Pronòstic

L'informe es va fer fa 2 hores i 56 minuts, a les 23:00 UTC
Pronòstic vàlid del 15 a les 00 UTC al 15 a les 24 UTC
Vent 4 kt amb direcció variable
Visibilitat 10 km o més
sense núvols per sota de 1500 mi sense presència de cumulonimbus.

TAF: LEBZ 142300Z 1500/1524 VRB04KT CAVOK TX39/1516Z TN24/1506Z

Observacions i pronòstics meteorològics de més de 4000 aeroports (METAR i TAF).

Les estacions disponibles són els punts grocs i vermells al mapa.

Posi el ratolí al punt desitjat per veure el nom de l'estació.

Feu clic per veure les observacions i els pronòstics meteorològics.

Per canviar el mapa: feu clic els botons verds amb una creu de color negre per apropar; al botó verd amb un guió per allunyar la imatge; o en les fletxes verdes per a mapes adjacents.


METAR-TAF: